sensor_id;sensor_type;location;lat;lon;timestamp;temperature;humidity
71117;SHT31;58775;46.992;9.518;2023-02-28T00:01:55;1.00;74.11
71117;SHT31;58775;46.992;9.518;2023-02-28T00:03:56;1.03;74.18
71117;SHT31;58775;46.992;9.518;2023-02-28T00:05:57;1.02;74.06
71117;SHT31;58775;46.992;9.518;2023-02-28T00:07:58;1.03;73.99
71117;SHT31;58775;46.992;9.518;2023-02-28T00:10:00;0.92;75.18
71117;SHT31;58775;46.992;9.518;2023-02-28T00:12:01;0.95;74.83
71117;SHT31;58775;46.992;9.518;2023-02-28T00:14:11;0.90;74.83
71117;SHT31;58775;46.992;9.518;2023-02-28T00:16:14;0.92;74.69
71117;SHT31;58775;46.992;9.518;2023-02-28T00:18:16;0.82;75.26
71117;SHT31;58775;46.992;9.518;2023-02-28T00:20:18;0.79;75.19
71117;SHT31;58775;46.992;9.518;2023-02-28T00:22:20;0.76;75.45
71117;SHT31;58775;46.992;9.518;2023-02-28T00:24:21;0.65;75.56
71117;SHT31;58775;46.992;9.518;2023-02-28T00:26:22;0.55;76.35
71117;SHT31;58775;46.992;9.518;2023-02-28T00:28:24;0.64;76.01
71117;SHT31;58775;46.992;9.518;2023-02-28T00:30:25;0.62;76.26
71117;SHT31;58775;46.992;9.518;2023-02-28T00:32:26;0.75;75.88
71117;SHT31;58775;46.992;9.518;2023-02-28T00:34:27;0.75;75.25
71117;SHT31;58775;46.992;9.518;2023-02-28T00:36:29;0.68;75.60
71117;SHT31;58775;46.992;9.518;2023-02-28T00:38:30;0.57;75.80
71117;SHT31;58775;46.992;9.518;2023-02-28T00:40:31;0.48;76.51
71117;SHT31;58775;46.992;9.518;2023-02-28T00:42:33;0.36;76.81
71117;SHT31;58775;46.992;9.518;2023-02-28T00:44:35;0.24;76.92
71117;SHT31;58775;46.992;9.518;2023-02-28T00:46:36;0.14;77.75
71117;SHT31;58775;46.992;9.518;2023-02-28T00:48:37;0.21;77.39
71117;SHT31;58775;46.992;9.518;2023-02-28T00:50:38;0.04;77.85
71117;SHT31;58775;46.992;9.518;2023-02-28T00:52:39;-0.10;78.64
71117;SHT31;58775;46.992;9.518;2023-02-28T00:54:39;0.00;78.30
71117;SHT31;58775;46.992;9.518;2023-02-28T00:56:42;0.04;78.31
71117;SHT31;58775;46.992;9.518;2023-02-28T00:58:42;0.10;78.26
71117;SHT31;58775;46.992;9.518;2023-02-28T01:00:43;0.07;78.00
71117;SHT31;58775;46.992;9.518;2023-02-28T01:02:49;-0.04;78.25
71117;SHT31;58775;46.992;9.518;2023-02-28T01:04:50;0.06;78.00
71117;SHT31;58775;46.992;9.518;2023-02-28T01:06:51;-0.27;79.20
71117;SHT31;58775;46.992;9.518;2023-02-28T01:08:52;-0.24;79.49
71117;SHT31;58775;46.992;9.518;2023-02-28T01:10:53;-0.13;79.20
71117;SHT31;58775;46.992;9.518;2023-02-28T01:12:54;-0.11;78.50
71117;SHT31;58775;46.992;9.518;2023-02-28T01:14:55;-0.17;78.99
71117;SHT31;58775;46.992;9.518;2023-02-28T01:16:56;-0.14;79.26
71117;SHT31;58775;46.992;9.518;2023-02-28T01:18:59;-0.28;80.10
71117;SHT31;58775;46.992;9.518;2023-02-28T01:21:05;-0.25;80.20
71117;SHT31;58775;46.992;9.518;2023-02-28T01:23:06;-0.10;79.22
71117;SHT31;58775;46.992;9.518;2023-02-28T01:25:08;0.00;78.60
71117;SHT31;58775;46.992;9.518;2023-02-28T01:27:09;0.04;78.17
71117;SHT31;58775;46.992;9.518;2023-02-28T01:29:11;-0.27;79.29
71117;SHT31;58775;46.992;9.518;2023-02-28T01:31:12;-0.18;79.20
71117;SHT31;58775;46.992;9.518;2023-02-28T01:33:14;-0.20;79.15
71117;SHT31;58775;46.992;9.518;2023-02-28T01:35:14;-0.17;79.18
71117;SHT31;58775;46.992;9.518;2023-02-28T01:37:15;-0.11;78.65
71117;SHT31;58775;46.992;9.518;2023-02-28T01:39:18;-0.04;78.39
71117;SHT31;58775;46.992;9.518;2023-02-28T01:41:22;0.01;78.73
71117;SHT31;58775;46.992;9.518;2023-02-28T01:47:47;-0.03;79.26
71117;SHT31;58775;46.992;9.518;2023-02-28T01:49:50;0.04;79.00
71117;SHT31;58775;46.992;9.518;2023-02-28T01:51:54;0.03;79.15
71117;SHT31;58775;46.992;9.518;2023-02-28T01:54:02;0.01;79.47
71117;SHT31;58775;46.992;9.518;2023-02-28T01:56:06;0.11;78.99
71117;SHT31;58775;46.992;9.518;2023-02-28T01:58:08;0.04;79.04
71117;SHT31;58775;46.992;9.518;2023-02-28T02:00:18;-0.07;79.37
71117;SHT31;58775;46.992;9.518;2023-02-28T02:02:21;-0.02;79.07
71117;SHT31;58775;46.992;9.518;2023-02-28T02:04:27;-0.03;79.00
71117;SHT31;58775;46.992;9.518;2023-02-28T02:06:38;0.00;79.18
71117;SHT31;58775;46.992;9.518;2023-02-28T02:08:44;0.11;78.81
71117;SHT31;58775;46.992;9.518;2023-02-28T02:10:50;0.13;78.35
71117;SHT31;58775;46.992;9.518;2023-02-28T02:15:31;-0.24;80.04
71117;SHT31;58775;46.992;9.518;2023-02-28T02:18:12;-0.38;80.21
71117;SHT31;58775;46.992;9.518;2023-02-28T02:25:23;-0.50;79.71
71117;SHT31;58775;46.992;9.518;2023-02-28T02:35:13;-0.27;78.95
71117;SHT31;58775;46.992;9.518;2023-02-28T02:39:44;-0.28;78.84
71117;SHT31;58775;46.992;9.518;2023-02-28T02:41:52;-0.27;78.73
71117;SHT31;58775;46.992;9.518;2023-02-28T02:44:37;-0.23;78.93
71117;SHT31;58775;46.992;9.518;2023-02-28T02:46:23;-0.31;79.10
71117;SHT31;58775;46.992;9.518;2023-02-28T02:48:29;-0.30;78.95
71117;SHT31;58775;46.992;9.518;2023-02-28T02:50:36;-0.40;79.35
71117;SHT31;58775;46.992;9.518;2023-02-28T02:52:46;-0.41;79.95
71117;SHT31;58775;46.992;9.518;2023-02-28T02:54:52;-0.60;81.25
71117;SHT31;58775;46.992;9.518;2023-02-28T02:57:00;-0.40;80.67
71117;SHT31;58775;46.992;9.518;2023-02-28T02:59:09;-0.38;80.82
71117;SHT31;58775;46.992;9.518;2023-02-28T03:01:16;-0.45;80.86
71117;SHT31;58775;46.992;9.518;2023-02-28T03:03:29;-0.52;80.55
71117;SHT31;58775;46.992;9.518;2023-02-28T03:05:39;-0.54;80.36
71117;SHT31;58775;46.992;9.518;2023-02-28T03:07:42;-0.66;80.84
71117;SHT31;58775;46.992;9.518;2023-02-28T03:09:53;-0.71;80.75
71117;SHT31;58775;46.992;9.518;2023-02-28T03:11:55;-0.89;80.82
71117;SHT31;58775;46.992;9.518;2023-02-28T03:21:12;-0.69;80.19
71117;SHT31;58775;46.992;9.518;2023-02-28T03:23:20;-0.61;79.89
71117;SHT31;58775;46.992;9.518;2023-02-28T03:25:33;-0.60;80.22
71117;SHT31;58775;46.992;9.518;2023-02-28T03:30:27;-1.00;81.92
71117;SHT31;58775;46.992;9.518;2023-02-28T03:32:35;-1.00;81.48
71117;SHT31;58775;46.992;9.518;2023-02-28T03:34:39;-0.84;80.56
71117;SHT31;58775;46.992;9.518;2023-02-28T03:36:48;-0.96;81.00
71117;SHT31;58775;46.992;9.518;2023-02-28T03:39:03;-1.09;81.31
71117;SHT31;58775;46.992;9.518;2023-02-28T03:41:24;-1.06;81.37
71117;SHT31;58775;46.992;9.518;2023-02-28T03:43:29;-0.91;80.76
71117;SHT31;58775;46.992;9.518;2023-02-28T03:45:36;-0.93;81.04
71117;SHT31;58775;46.992;9.518;2023-02-28T03:47:52;-1.02;81.20
71117;SHT31;58775;46.992;9.518;2023-02-28T03:52:21;-1.10;81.26
71117;SHT31;58775;46.992;9.518;2023-02-28T03:54:28;-1.26;81.92
71117;SHT31;58775;46.992;9.518;2023-02-28T03:57:02;-1.32;82.51
71117;SHT31;58775;46.992;9.518;2023-02-28T03:59:14;-1.23;82.15
71117;SHT31;58775;46.992;9.518;2023-02-28T04:01:23;-1.12;81.76
71117;SHT31;58775;46.992;9.518;2023-02-28T04:03:25;-1.05;81.36
71117;SHT31;58775;46.992;9.518;2023-02-28T04:05:26;-1.09;81.52
71117;SHT31;58775;46.992;9.518;2023-02-28T04:07:31;-0.99;81.06
71117;SHT31;58775;46.992;9.518;2023-02-28T04:09:32;-0.91;80.47
71117;SHT31;58775;46.992;9.518;2023-02-28T04:11:36;-0.97;80.80
71117;SHT31;58775;46.992;9.518;2023-02-28T04:13:37;-0.96;80.88
71117;SHT31;58775;46.992;9.518;2023-02-28T04:15:38;-0.93;80.83
71117;SHT31;58775;46.992;9.518;2023-02-28T04:17:39;-0.97;80.78
71117;SHT31;58775;46.992;9.518;2023-02-28T04:19:40;-0.93;79.83
71117;SHT31;58775;46.992;9.518;2023-02-28T04:21:44;-1.05;80.62
71117;SHT31;58775;46.992;9.518;2023-02-28T04:23:46;-1.17;81.26
71117;SHT31;58775;46.992;9.518;2023-02-28T04:25:47;-1.06;81.11
71117;SHT31;58775;46.992;9.518;2023-02-28T04:27:48;-1.34;81.77
71117;SHT31;58775;46.992;9.518;2023-02-28T04:29:49;-1.20;81.58
71117;SHT31;58775;46.992;9.518;2023-02-28T04:31:50;-1.16;81.91
71117;SHT31;58775;46.992;9.518;2023-02-28T04:33:51;-1.16;82.04
71117;SHT31;58775;46.992;9.518;2023-02-28T04:36:03;-1.19;81.86
71117;SHT31;58775;46.992;9.518;2023-02-28T04:38:04;-1.23;82.16
71117;SHT31;58775;46.992;9.518;2023-02-28T04:40:05;-1.37;82.46
71117;SHT31;58775;46.992;9.518;2023-02-28T04:42:06;-1.32;82.49
71117;SHT31;58775;46.992;9.518;2023-02-28T04:44:08;-1.27;81.73
71117;SHT31;58775;46.992;9.518;2023-02-28T04:46:09;-1.27;82.00
71117;SHT31;58775;46.992;9.518;2023-02-28T04:48:10;-1.39;82.46
71117;SHT31;58775;46.992;9.518;2023-02-28T04:50:11;-1.32;82.02
71117;SHT31;58775;46.992;9.518;2023-02-28T04:52:12;-1.29;82.03
71117;SHT31;58775;46.992;9.518;2023-02-28T04:54:13;-1.29;81.92
71117;SHT31;58775;46.992;9.518;2023-02-28T04:56:18;-1.26;81.55
71117;SHT31;58775;46.992;9.518;2023-02-28T04:58:19;-1.51;82.16
71117;SHT31;58775;46.992;9.518;2023-02-28T05:00:23;-1.67;83.10
71117;SHT31;58775;46.992;9.518;2023-02-28T05:02:23;-1.78;83.91
71117;SHT31;58775;46.992;9.518;2023-02-28T05:04:25;-1.78;84.25
71117;SHT31;58775;46.992;9.518;2023-02-28T05:06:27;-1.66;83.46
71117;SHT31;58775;46.992;9.518;2023-02-28T05:08:28;-1.57;83.27
71117;SHT31;58775;46.992;9.518;2023-02-28T05:10:31;-1.53;82.90
71117;SHT31;58775;46.992;9.518;2023-02-28T05:12:32;-1.48;82.77
71117;SHT31;58775;46.992;9.518;2023-02-28T05:14:33;-1.53;82.87
71117;SHT31;58775;46.992;9.518;2023-02-28T05:16:34;-1.56;82.91
71117;SHT31;58775;46.992;9.518;2023-02-28T05:18:36;-1.58;83.34
71117;SHT31;58775;46.992;9.518;2023-02-28T05:20:37;-1.50;83.11
71117;SHT31;58775;46.992;9.518;2023-02-28T05:22:38;-1.39;82.25
71117;SHT31;58775;46.992;9.518;2023-02-28T05:24:39;-1.36;82.14
71117;SHT31;58775;46.992;9.518;2023-02-28T05:26:42;-1.39;82.09
71117;SHT31;58775;46.992;9.518;2023-02-28T05:28:43;-1.36;82.04
71117;SHT31;58775;46.992;9.518;2023-02-28T05:30:44;-1.50;82.87
71117;SHT31;58775;46.992;9.518;2023-02-28T05:32:50;-1.56;82.49
71117;SHT31;58775;46.992;9.518;2023-02-28T05:34:51;-1.50;82.22
71117;SHT31;58775;46.992;9.518;2023-02-28T05:36:52;-1.48;82.13
71117;SHT31;58775;46.992;9.518;2023-02-28T05:38:56;-1.46;82.26
71117;SHT31;58775;46.992;9.518;2023-02-28T05:40:57;-1.50;82.29
71117;SHT31;58775;46.992;9.518;2023-02-28T05:42:58;-1.57;82.65
71117;SHT31;58775;46.992;9.518;2023-02-28T05:44:59;-1.70;83.22
71117;SHT31;58775;46.992;9.518;2023-02-28T05:47:00;-1.74;83.33
71117;SHT31;58775;46.992;9.518;2023-02-28T05:49:01;-1.71;83.30
71117;SHT31;58775;46.992;9.518;2023-02-28T05:51:03;-1.61;82.91
71117;SHT31;58775;46.992;9.518;2023-02-28T05:53:04;-1.70;83.12
71117;SHT31;58775;46.992;9.518;2023-02-28T05:55:05;-1.60;82.96
71117;SHT31;58775;46.992;9.518;2023-02-28T05:57:07;-1.56;82.54
71117;SHT31;58775;46.992;9.518;2023-02-28T05:59:08;-1.57;82.91
71117;SHT31;58775;46.992;9.518;2023-02-28T06:01:36;-1.54;82.81
71117;SHT31;58775;46.992;9.518;2023-02-28T06:03:37;-1.48;82.81
71117;SHT31;58775;46.992;9.518;2023-02-28T06:05:38;-1.61;82.49
71117;SHT31;58775;46.992;9.518;2023-02-28T06:07:39;-1.63;82.77
71117;SHT31;58775;46.992;9.518;2023-02-28T06:09:40;-1.63;82.56
71117;SHT31;58775;46.992;9.518;2023-02-28T06:11:41;-1.64;83.22
71117;SHT31;58775;46.992;9.518;2023-02-28T06:13:42;-1.71;84.19
71117;SHT31;58775;46.992;9.518;2023-02-28T06:15:43;-1.79;84.28
71117;SHT31;58775;46.992;9.518;2023-02-28T06:17:44;-1.72;83.89
71117;SHT31;58775;46.992;9.518;2023-02-28T06:19:45;-1.67;83.78
71117;SHT31;58775;46.992;9.518;2023-02-28T06:21:49;-1.54;83.45
71117;SHT31;58775;46.992;9.518;2023-02-28T06:23:51;-1.63;83.72
71117;SHT31;58775;46.992;9.518;2023-02-28T06:25:52;-1.53;83.51
71117;SHT31;58775;46.992;9.518;2023-02-28T06:27:54;-1.44;83.44
71117;SHT31;58775;46.992;9.518;2023-02-28T06:29:56;-1.51;83.32
71117;SHT31;58775;46.992;9.518;2023-02-28T06:31:57;-1.32;82.85
71117;SHT31;58775;46.992;9.518;2023-02-28T06:33:58;-1.26;82.85
71117;SHT31;58775;46.992;9.518;2023-02-28T06:35:58;-1.17;82.80
71117;SHT31;58775;46.992;9.518;2023-02-28T06:37:59;-1.12;82.47
71117;SHT31;58775;46.992;9.518;2023-02-28T06:40:00;-1.00;82.07
71117;SHT31;58775;46.992;9.518;2023-02-28T06:42:01;-1.00;81.88
71117;SHT31;58775;46.992;9.518;2023-02-28T06:44:03;-0.89;81.57
71117;SHT31;58775;46.992;9.518;2023-02-28T06:46:06;-0.78;81.52
71117;SHT31;58775;46.992;9.518;2023-02-28T06:48:08;-0.69;81.30
71117;SHT31;58775;46.992;9.518;2023-02-28T06:50:11;-0.52;80.90
71117;SHT31;58775;46.992;9.518;2023-02-28T06:52:12;-0.35;79.93
71117;SHT31;58775;46.992;9.518;2023-02-28T06:54:13;-0.31;79.95
71117;SHT31;58775;46.992;9.518;2023-02-28T06:56:15;-0.17;79.34
71117;SHT31;58775;46.992;9.518;2023-02-28T06:58:17;-0.14;78.94
71117;SHT31;58775;46.992;9.518;2023-02-28T07:00:21;0.04;78.50
71117;SHT31;58775;46.992;9.518;2023-02-28T07:02:22;0.18;78.07
71117;SHT31;58775;46.992;9.518;2023-02-28T07:04:23;0.32;77.78
71117;SHT31;58775;46.992;9.518;2023-02-28T07:06:24;0.51;77.43
71117;SHT31;58775;46.992;9.518;2023-02-28T07:08:25;0.76;77.04
71117;SHT31;58775;46.992;9.518;2023-02-28T07:10:27;0.96;76.63
71117;SHT31;58775;46.992;9.518;2023-02-28T07:12:28;1.02;76.19
71117;SHT31;58775;46.992;9.518;2023-02-28T07:14:29;1.22;74.61
71117;SHT31;58775;46.992;9.518;2023-02-28T07:16:30;1.27;74.43
71117;SHT31;58775;46.992;9.518;2023-02-28T07:18:31;1.30;74.30
71117;SHT31;58775;46.992;9.518;2023-02-28T07:20:33;1.67;73.15
71117;SHT31;58775;46.992;9.518;2023-02-28T07:22:34;1.79;72.50
71117;SHT31;58775;46.992;9.518;2023-02-28T07:24:35;1.44;72.83
71117;SHT31;58775;46.992;9.518;2023-02-28T07:26:36;1.97;72.93
71117;SHT31;58775;46.992;9.518;2023-02-28T07:28:37;2.32;71.57
71117;SHT31;58775;46.992;9.518;2023-02-28T07:30:39;2.86;69.54
71117;SHT31;58775;46.992;9.518;2023-02-28T07:32:40;3.14;68.75
71117;SHT31;58775;46.992;9.518;2023-02-28T07:34:41;3.43;67.62
71117;SHT31;58775;46.992;9.518;2023-02-28T07:36:42;3.93;66.48
71117;SHT31;58775;46.992;9.518;2023-02-28T07:38:44;3.78;65.86
71117;SHT31;58775;46.992;9.518;2023-02-28T07:40:46;4.03;65.55
71117;SHT31;58775;46.992;9.518;2023-02-28T07:42:47;4.24;64.57
71117;SHT31;58775;46.992;9.518;2023-02-28T07:44:51;3.89;65.87
71117;SHT31;58775;46.992;9.518;2023-02-28T07:46:53;3.99;64.09
71117;SHT31;58775;46.992;9.518;2023-02-28T07:48:54;4.21;63.57
71117;SHT31;58775;46.992;9.518;2023-02-28T07:51:00;4.68;61.87
71117;SHT31;58775;46.992;9.518;2023-02-28T07:53:03;4.71;62.48
71117;SHT31;58775;46.992;9.518;2023-02-28T07:55:06;5.03;61.87
71117;SHT31;58775;46.992;9.518;2023-02-28T07:57:07;5.16;61.30
71117;SHT31;58775;46.992;9.518;2023-02-28T07:59:08;5.11;61.01
71117;SHT31;58775;46.992;9.518;2023-02-28T08:01:11;4.95;61.72
71117;SHT31;58775;46.992;9.518;2023-02-28T08:03:12;4.92;61.51
71117;SHT31;58775;46.992;9.518;2023-02-28T08:05:14;4.75;61.57
71117;SHT31;58775;46.992;9.518;2023-02-28T08:07:16;4.82;61.97
71117;SHT31;58775;46.992;9.518;2023-02-28T08:09:18;4.57;62.63
71117;SHT31;58775;46.992;9.518;2023-02-28T08:11:19;4.58;62.03
71117;SHT31;58775;46.992;9.518;2023-02-28T08:13:20;4.62;62.14
71117;SHT31;58775;46.992;9.518;2023-02-28T08:15:21;4.36;62.62
71117;SHT31;58775;46.992;9.518;2023-02-28T08:17:22;4.40;62.54
71117;SHT31;58775;46.992;9.518;2023-02-28T08:19:23;4.30;63.04
71117;SHT31;58775;46.992;9.518;2023-02-28T08:21:24;4.37;62.70
71117;SHT31;58775;46.992;9.518;2023-02-28T08:23:25;3.82;65.86
71117;SHT31;58775;46.992;9.518;2023-02-28T08:25:26;3.87;63.84
71117;SHT31;58775;46.992;9.518;2023-02-28T08:27:28;3.86;64.45
71117;SHT31;58775;46.992;9.518;2023-02-28T08:29:29;3.70;66.74
71117;SHT31;58775;46.992;9.518;2023-02-28T08:31:30;4.47;63.35
71117;SHT31;58775;46.992;9.518;2023-02-28T08:33:31;3.69;66.32
71117;SHT31;58775;46.992;9.518;2023-02-28T08:35:35;4.45;64.03
71117;SHT31;58775;46.992;9.518;2023-02-28T08:37:36;4.68;62.12
71117;SHT31;58775;46.992;9.518;2023-02-28T08:39:37;5.47;60.78
71117;SHT31;58775;46.992;9.518;2023-02-28T08:41:38;5.43;61.72
71117;SHT31;58775;46.992;9.518;2023-02-28T08:43:40;6.12;59.15
71117;SHT31;58775;46.992;9.518;2023-02-28T08:45:41;6.50;58.60
71117;SHT31;58775;46.992;9.518;2023-02-28T08:47:42;6.94;57.06
71117;SHT31;58775;46.992;9.518;2023-02-28T08:49:43;5.90;61.06
71117;SHT31;58775;46.992;9.518;2023-02-28T08:51:44;5.19;63.05
71117;SHT31;58775;46.992;9.518;2023-02-28T08:53:45;5.32;62.51
71117;SHT31;58775;46.992;9.518;2023-02-28T08:55:46;5.87;62.58
71117;SHT31;58775;46.992;9.518;2023-02-28T08:57:47;6.57;59.12
71117;SHT31;58775;46.992;9.518;2023-02-28T08:59:48;7.42;54.85
71117;SHT31;58775;46.992;9.518;2023-02-28T09:01:49;8.01;53.75
71117;SHT31;58775;46.992;9.518;2023-02-28T09:03:51;8.26;52.67
71117;SHT31;58775;46.992;9.518;2023-02-28T09:05:56;9.05;51.90
71117;SHT31;58775;46.992;9.518;2023-02-28T09:07:57;6.86;56.40
71117;SHT31;58775;46.992;9.518;2023-02-28T09:09:58;8.95;52.69
71117;SHT31;58775;46.992;9.518;2023-02-28T09:11:59;9.09;51.61
71117;SHT31;58775;46.992;9.518;2023-02-28T09:14:01;9.73;50.72
71117;SHT31;58775;46.992;9.518;2023-02-28T09:16:06;10.24;47.94
71117;SHT31;58775;46.992;9.518;2023-02-28T09:18:08;10.32;48.28
71117;SHT31;58775;46.992;9.518;2023-02-28T09:20:10;10.67;47.69
71117;SHT31;58775;46.992;9.518;2023-02-28T09:22:11;10.24;48.34
71117;SHT31;58775;46.992;9.518;2023-02-28T09:24:12;8.84;51.86
71117;SHT31;58775;46.992;9.518;2023-02-28T09:26:16;10.39;48.21
71117;SHT31;58775;46.992;9.518;2023-02-28T09:28:19;8.95;51.78
71117;SHT31;58775;46.992;9.518;2023-02-28T09:30:20;10.11;48.68
71117;SHT31;58775;46.992;9.518;2023-02-28T09:32:21;10.55;47.41
71117;SHT31;58775;46.992;9.518;2023-02-28T09:34:25;10.55;47.61
71117;SHT31;58775;46.992;9.518;2023-02-28T09:36:27;10.38;48.06
71117;SHT31;58775;46.992;9.518;2023-02-28T09:38:30;10.26;48.62
71117;SHT31;58775;46.992;9.518;2023-02-28T09:40:36;10.19;48.30
71117;SHT31;58775;46.992;9.518;2023-02-28T09:42:38;10.26;49.20
71117;SHT31;58775;46.992;9.518;2023-02-28T09:44:42;10.31;48.52
71117;SHT31;58775;46.992;9.518;2023-02-28T09:46:51;10.89;47.73
71117;SHT31;58775;46.992;9.518;2023-02-28T09:48:54;10.80;46.20
71117;SHT31;58775;46.992;9.518;2023-02-28T09:51:04;11.30;46.77
71117;SHT31;58775;46.992;9.518;2023-02-28T09:53:26;11.58;44.83
71117;SHT31;58775;46.992;9.518;2023-02-28T09:55:36;10.14;49.95
71117;SHT31;58775;46.992;9.518;2023-02-28T09:57:40;11.45;46.32
71117;SHT31;58775;46.992;9.518;2023-02-28T10:02:46;12.06;45.11
71117;SHT31;58775;46.992;9.518;2023-02-28T10:04:58;12.28;44.09
71117;SHT31;58775;46.992;9.518;2023-02-28T10:07:04;12.09;43.69
71117;SHT31;58775;46.992;9.518;2023-02-28T10:09:19;11.52;46.85
71117;SHT31;58775;46.992;9.518;2023-02-28T10:11:25;11.99;44.67
71117;SHT31;58775;46.992;9.518;2023-02-28T10:13:33;12.51;43.27
71117;SHT31;58775;46.992;9.518;2023-02-28T10:15:36;12.68;43.53
71117;SHT31;58775;46.992;9.518;2023-02-28T10:17:41;12.53;43.74
71117;SHT31;58775;46.992;9.518;2023-02-28T10:19:59;10.92;49.17
71117;SHT31;58775;46.992;9.518;2023-02-28T10:26:17;12.54;44.03
71117;SHT31;58775;46.992;9.518;2023-02-28T10:28:18;11.62;47.47
71117;SHT31;58775;46.992;9.518;2023-02-28T10:30:19;10.25;48.55
71117;SHT31;58775;46.992;9.518;2023-02-28T10:32:23;10.81;48.41
71117;SHT31;58775;46.992;9.518;2023-02-28T10:34:25;11.48;46.02
71117;SHT31;58775;46.992;9.518;2023-02-28T10:36:26;11.51;45.73
71117;SHT31;58775;46.992;9.518;2023-02-28T10:38:36;11.91;44.26
71117;SHT31;58775;46.992;9.518;2023-02-28T10:40:37;11.82;46.61
71117;SHT31;58775;46.992;9.518;2023-02-28T10:42:38;9.32;52.41
71117;SHT31;58775;46.992;9.518;2023-02-28T10:44:39;9.25;55.25
71117;SHT31;58775;46.992;9.518;2023-02-28T10:46:41;9.44;51.87
71117;SHT31;58775;46.992;9.518;2023-02-28T10:48:57;9.51;49.47
71117;SHT31;58775;46.992;9.518;2023-02-28T10:51:01;8.81;54.87
71117;SHT31;58775;46.992;9.518;2023-02-28T10:55:28;9.46;54.48
71117;SHT31;58775;46.992;9.518;2023-02-28T10:57:30;9.39;52.92
71117;SHT31;58775;46.992;9.518;2023-02-28T10:59:31;10.75;48.06
71117;SHT31;58775;46.992;9.518;2023-02-28T11:01:40;10.75;48.42
71117;SHT31;58775;46.992;9.518;2023-02-28T11:03:42;10.93;47.40
71117;SHT31;58775;46.992;9.518;2023-02-28T11:05:43;11.08;48.83
71117;SHT31;58775;46.992;9.518;2023-02-28T11:07:54;11.96;46.52
71117;SHT31;58775;46.992;9.518;2023-02-28T11:09:57;10.70;50.07
71117;SHT31;58775;46.992;9.518;2023-02-28T11:11:59;11.61;46.72
71117;SHT31;58775;46.992;9.518;2023-02-28T11:14:05;12.46;44.76
71117;SHT31;58775;46.992;9.518;2023-02-28T11:16:09;12.44;45.48
71117;SHT31;58775;46.992;9.518;2023-02-28T11:18:29;12.71;45.72
71117;SHT31;58775;46.992;9.518;2023-02-28T11:20:32;12.79;46.07
71117;SHT31;58775;46.992;9.518;2023-02-28T11:22:38;12.34;45.26
71117;SHT31;58775;46.992;9.518;2023-02-28T11:24:43;12.80;44.08
71117;SHT31;58775;46.992;9.518;2023-02-28T11:26:47;12.91;44.21
71117;SHT31;58775;46.992;9.518;2023-02-28T11:29:05;12.77;43.87
71117;SHT31;58775;46.992;9.518;2023-02-28T11:35:42;12.05;46.71
71117;SHT31;58775;46.992;9.518;2023-02-28T11:37:43;12.56;45.23
71117;SHT31;58775;46.992;9.518;2023-02-28T11:39:46;10.11;49.65
71117;SHT31;58775;46.992;9.518;2023-02-28T11:44:28;11.26;48.30
71117;SHT31;58775;46.992;9.518;2023-02-28T11:46:50;12.49;45.71
71117;SHT31;58775;46.992;9.518;2023-02-28T11:51:26;13.16;45.14
71117;SHT31;58775;46.992;9.518;2023-02-28T11:54:06;11.48;46.85
71117;SHT31;58775;46.992;9.518;2023-02-28T11:56:26;12.20;46.94
71117;SHT31;58775;46.992;9.518;2023-02-28T11:58:50;12.50;47.54
71117;SHT31;58775;46.992;9.518;2023-02-28T12:01:25;11.00;47.14
71117;SHT31;58775;46.992;9.518;2023-02-28T12:06:18;10.80;48.41
71117;SHT31;58775;46.992;9.518;2023-02-28T12:08:49;10.65;49.87
71117;SHT31;58775;46.992;9.518;2023-02-28T12:13:27;10.95;47.37
71117;SHT31;58775;46.992;9.518;2023-02-28T12:15:38;11.58;45.57
71117;SHT31;58775;46.992;9.518;2023-02-28T12:17:55;10.60;49.97
71117;SHT31;58775;46.992;9.518;2023-02-28T12:22:28;12.00;47.05
71117;SHT31;58775;46.992;9.518;2023-02-28T12:24:58;12.50;44.40
71117;SHT31;58775;46.992;9.518;2023-02-28T12:27:07;12.63;44.71
71117;SHT31;58775;46.992;9.518;2023-02-28T12:29:47;13.36;44.70
71117;SHT31;58775;46.992;9.518;2023-02-28T12:32:04;12.98;44.25
71117;SHT31;58775;46.992;9.518;2023-02-28T12:34:11;13.15;42.80
71117;SHT31;58775;46.992;9.518;2023-02-28T12:36:18;13.36;42.98
71117;SHT31;58775;46.992;9.518;2023-02-28T12:38:29;12.76;43.76
71117;SHT31;58775;46.992;9.518;2023-02-28T12:41:04;11.01;46.91
71117;SHT31;58775;46.992;9.518;2023-02-28T12:43:06;9.60;50.60
71117;SHT31;58775;46.992;9.518;2023-02-28T12:45:13;10.60;48.57
71117;SHT31;58775;46.992;9.518;2023-02-28T12:47:18;11.86;46.01
71117;SHT31;58775;46.992;9.518;2023-02-28T12:49:33;11.00;46.27
71117;SHT31;58775;46.992;9.518;2023-02-28T12:51:35;11.50;45.51
71117;SHT31;58775;46.992;9.518;2023-02-28T12:56:53;11.85;45.32
71117;SHT31;58775;46.992;9.518;2023-02-28T12:59:00;10.90;47.55
71117;SHT31;58775;46.992;9.518;2023-02-28T13:03:49;10.58;50.01
71117;SHT31;58775;46.992;9.518;2023-02-28T13:10:23;10.52;48.02
71117;SHT31;58775;46.992;9.518;2023-02-28T13:12:25;9.08;52.09
71117;SHT31;58775;46.992;9.518;2023-02-28T13:14:36;9.42;51.10
71117;SHT31;58775;46.992;9.518;2023-02-28T13:16:55;8.34;52.94
71117;SHT31;58775;46.992;9.518;2023-02-28T13:19:09;7.89;54.01
71117;SHT31;58775;46.992;9.518;2023-02-28T13:21:28;7.21;54.90
71117;SHT31;58775;46.992;9.518;2023-02-28T13:25:51;6.30;58.05
71117;SHT31;58775;46.992;9.518;2023-02-28T13:27:53;5.74;59.73
71117;SHT31;58775;46.992;9.518;2023-02-28T13:30:02;5.43;60.83
71117;SHT31;58775;46.992;9.518;2023-02-28T13:34:26;5.60;60.13
71117;SHT31;58775;46.992;9.518;2023-02-28T13:36:28;5.03;61.81
71117;SHT31;58775;46.992;9.518;2023-02-28T13:38:35;4.73;62.81
71117;SHT31;58775;46.992;9.518;2023-02-28T13:40:36;4.40;64.07
71117;SHT31;58775;46.992;9.518;2023-02-28T13:51:41;4.37;64.49
71117;SHT31;58775;46.992;9.518;2023-02-28T13:53:55;4.47;64.93
71117;SHT31;58775;46.992;9.518;2023-02-28T13:56:19;4.73;63.71
71117;SHT31;58775;46.992;9.518;2023-02-28T14:00:59;4.36;64.91
71117;SHT31;58775;46.992;9.518;2023-02-28T14:03:22;4.10;64.94
71117;SHT31;58775;46.992;9.518;2023-02-28T14:05:27;4.11;66.14
71117;SHT31;58775;46.992;9.518;2023-02-28T14:07:37;3.97;65.38
71117;SHT31;58775;46.992;9.518;2023-02-28T14:09:44;4.30;64.83
71117;SHT31;58775;46.992;9.518;2023-02-28T14:11:46;4.34;65.52
71117;SHT31;58775;46.992;9.518;2023-02-28T14:13:47;4.38;65.72
71117;SHT31;58775;46.992;9.518;2023-02-28T14:15:59;4.47;65.21
71117;SHT31;58775;46.992;9.518;2023-02-28T14:20:19;4.30;65.97
71117;SHT31;58775;46.992;9.518;2023-02-28T14:22:58;4.40;65.00
71117;SHT31;58775;46.992;9.518;2023-02-28T14:25:37;4.07;67.01
71117;SHT31;58775;46.992;9.518;2023-02-28T14:32:25;4.34;65.15
71117;SHT31;58775;46.992;9.518;2023-02-28T14:37:13;4.25;66.47
71117;SHT31;58775;46.992;9.518;2023-02-28T14:39:21;4.47;65.36
71117;SHT31;58775;46.992;9.518;2023-02-28T14:41:36;4.27;65.07
71117;SHT31;58775;46.992;9.518;2023-02-28T14:43:51;4.27;65.27
71117;SHT31;58775;46.992;9.518;2023-02-28T14:45:56;4.14;65.92
71117;SHT31;58775;46.992;9.518;2023-02-28T14:47:59;4.33;65.34
71117;SHT31;58775;46.992;9.518;2023-02-28T14:50:02;4.07;65.54
71117;SHT31;58775;46.992;9.518;2023-02-28T14:52:26;4.21;65.55
71117;SHT31;58775;46.992;9.518;2023-02-28T14:54:29;3.97;66.96